Accueil
METAR-TAF:

METAR-TAF

Aéroports :

Prato Nevoso, Italie

Monte Malanotte

latitude: 44-15N, longitude: 007-48E, altitude: 1741 m

Observation

Le bulletin a été fait il y a 9 heures et 53 minutes, à 17:55 UTC
Vent 4 kt de ouest
Température -2°C
Humidité 54%
Pression 1004 hPa
Visibilité 10 km ou plus
Nuages fragmentés à une hauteur de 3300 ft

METAR: LIMY 101755Z 28004KT 9999 BKN033 M02/M10 Q1004 RMK OVC VAL NIL VIS MIN 9999

Heure: 04:48 (03:48 UTC)


TAF: absent

Observations et prévisions météorologiques de plus de 4000 aéroports (messages METAR et TAF).

Les stations disponibles sont représentées par des disques jaunes et rouges sur la carte.

Passer la souris dessus pour voir le nom de la station.

Cliquer dessus pour voir les observations et prévisions météorologiques.

Pour changer de carte: cliquez sur les boutons verts avec une croix noire pour zoomer, sur le bouton vert avec un tiret pour effectuer un zoom arrière, ou sur les flèches vertes pour les cartes adjacentes.


METAR-TAF: